createdAt,value
2018-07-20T00:01:09.414Z,47.30
2018-07-20T00:06:12.487Z,47.90
2018-07-20T00:11:15.578Z,47.50
2018-07-20T00:16:18.680Z,47.30
2018-07-20T00:21:21.755Z,47.40
2018-07-20T00:26:31.383Z,47.60
2018-07-20T00:31:34.558Z,47.40
2018-07-20T00:36:37.661Z,47.50
2018-07-20T00:41:41.027Z,47.80
2018-07-20T00:46:44.111Z,48.10
2018-07-20T00:51:47.207Z,48.10
2018-07-20T00:56:50.306Z,48.40
2018-07-20T01:01:53.414Z,48.50
2018-07-20T01:06:56.507Z,48.60
2018-07-20T01:11:59.587Z,48.80
2018-07-20T01:17:02.650Z,49.10
2018-07-20T01:22:05.725Z,49.20
2018-07-20T01:27:08.855Z,49.20
2018-07-20T01:32:11.911Z,49.10
2018-07-20T01:37:14.982Z,49.20
2018-07-20T01:42:18.072Z,49.20
2018-07-20T01:47:21.130Z,49.10
2018-07-20T01:52:24.182Z,49.10
2018-07-20T01:57:27.282Z,49.10
2018-07-20T02:02:30.414Z,49.30
2018-07-20T02:07:33.486Z,49.20
2018-07-20T02:12:36.602Z,49.40
2018-07-20T02:17:39.711Z,49.40
2018-07-20T02:22:49.396Z,49.50
2018-07-20T02:27:52.603Z,49.40
2018-07-20T02:32:55.701Z,49.60
2018-07-20T02:37:58.832Z,49.80
2018-07-20T02:43:01.937Z,49.80
2018-07-20T02:48:05.056Z,49.90
2018-07-20T02:53:08.173Z,49.80
2018-07-20T02:58:11.271Z,49.90
2018-07-20T03:03:14.396Z,49.80
2018-07-20T03:08:17.508Z,49.90
2018-07-20T03:13:20.636Z,50.20
2018-07-20T03:18:23.737Z,50.90
2018-07-20T03:23:26.893Z,51.20
2018-07-20T03:28:29.992Z,50.80
2018-07-20T03:33:33.123Z,50.90
2018-07-20T03:38:36.232Z,50.80
2018-07-20T03:43:39.349Z,51.00
2018-07-20T03:48:42.473Z,51.20
2018-07-20T03:53:45.596Z,51.20
2018-07-20T03:58:48.708Z,51.40
2018-07-20T04:03:51.806Z,51.40
2018-07-20T04:08:54.915Z,51.70
2018-07-20T04:13:58.055Z,51.80
2018-07-20T04:19:01.177Z,51.90
2018-07-20T04:24:04.300Z,52.00
2018-07-20T04:29:07.432Z,51.90
2018-07-20T04:34:10.571Z,51.90
2018-07-20T04:39:14.949Z,52.00
2018-07-20T04:44:18.044Z,52.20
2018-07-20T04:49:21.258Z,52.20
2018-07-20T04:54:24.416Z,52.40
2018-07-20T04:59:27.632Z,53.10
2018-07-20T05:04:30.835Z,53.10
2018-07-20T05:09:33.933Z,53.10
2018-07-20T05:19:39.987Z,53.50
2018-07-20T05:24:43.096Z,53.70
2018-07-20T05:29:46.195Z,53.20
2018-07-20T05:34:49.328Z,53.30
2018-07-20T05:39:52.488Z,53.00
2018-07-20T05:44:55.577Z,53.30
2018-07-20T05:49:58.673Z,53.40
2018-07-20T06:05:07.851Z,53.80
2018-07-20T06:10:10.959Z,53.80
2018-07-20T06:15:14.092Z,54.00
2018-07-20T06:20:17.197Z,53.70
2018-07-20T06:25:20.330Z,53.60
2018-07-20T06:30:23.472Z,53.80
2018-07-20T06:35:26.677Z,53.50
2018-07-20T06:40:29.779Z,53.30
2018-07-20T06:45:33.017Z,54.20
2018-07-20T06:50:36.228Z,53.40
2018-07-20T06:55:39.314Z,53.30
2018-07-20T07:00:42.435Z,53.20
2018-07-20T07:05:45.516Z,53.40
2018-07-20T07:10:48.639Z,53.30
2018-07-20T07:15:51.728Z,52.90
2018-07-20T07:20:54.848Z,52.80
2018-07-20T07:25:58.003Z,52.90
2018-07-20T07:31:01.074Z,53.00
2018-07-20T07:36:04.189Z,52.80
2018-07-20T07:41:07.359Z,52.70
2018-07-20T07:46:10.457Z,52.30
2018-07-20T07:51:13.567Z,52.50
2018-07-20T07:56:16.656Z,52.20
2018-07-20T08:01:19.776Z,52.00
2018-07-20T08:06:22.920Z,52.00
2018-07-20T08:11:26.109Z,50.70
2018-07-20T08:16:29.207Z,49.40
2018-07-20T08:21:32.296Z,49.20
2018-07-20T08:31:38.377Z,48.70
2018-07-20T08:36:41.494Z,48.60
2018-07-20T08:41:44.613Z,48.00
2018-07-20T08:46:47.823Z,46.10
2018-07-20T08:51:50.935Z,46.10
2018-07-20T09:01:56.969Z,45.10
2018-07-20T09:07:00.074Z,44.40
2018-07-20T09:12:03.193Z,41.50
2018-07-20T09:17:06.291Z,42.30
2018-07-20T09:22:09.423Z,42.10
2018-07-20T09:27:12.519Z,42.40
2018-07-20T09:32:15.609Z,42.20
2018-07-20T09:37:18.719Z,42.10
2018-07-20T09:42:21.813Z,41.60
2018-07-20T09:47:24.911Z,40.90
2018-07-20T09:52:28.058Z,40.80
2018-07-20T09:57:31.252Z,39.90
2018-07-20T10:02:34.383Z,38.60
2018-07-20T10:07:37.504Z,38.70
2018-07-20T10:12:40.628Z,39.30
2018-07-20T10:17:43.736Z,39.70
2018-07-20T10:42:27.112Z,37.60
2018-07-20T10:52:45.854Z,37.60
2018-07-20T10:57:49.218Z,34.40
2018-07-20T11:02:52.307Z,31.30
2018-07-20T11:07:55.425Z,32.50
2018-07-20T11:12:58.497Z,31.20
2018-07-20T11:18:01.639Z,30.90
2018-07-20T11:23:04.931Z,30.00
2018-07-20T11:28:08.030Z,30.60
2018-07-20T11:33:11.099Z,31.30
2018-07-20T11:38:14.243Z,30.00
2018-07-20T11:43:17.360Z,29.20
2018-07-20T11:48:20.565Z,28.80
2018-07-20T11:53:23.687Z,28.50
2018-07-20T11:58:26.915Z,28.70
2018-07-20T12:03:30.023Z,28.50
2018-07-20T12:08:33.127Z,29.60
2018-07-20T12:13:36.235Z,29.40
2018-07-20T12:18:39.312Z,28.40
2018-07-20T12:23:42.407Z,28.10
2018-07-20T12:28:45.507Z,28.10
2018-07-20T12:33:48.631Z,28.50
2018-07-20T12:38:51.780Z,28.00
2018-07-20T12:43:54.917Z,27.90
2018-07-20T12:48:57.971Z,28.20
2018-07-20T12:54:01.449Z,27.70
2018-07-20T12:59:04.919Z,27.50
2018-07-20T13:04:07.982Z,28.20
2018-07-20T13:09:12.427Z,28.40
2018-07-20T13:14:15.512Z,27.80
2018-07-20T13:19:18.615Z,28.20
2018-07-20T13:24:21.693Z,27.80
2018-07-20T13:29:24.771Z,28.20
2018-07-20T13:34:27.870Z,26.90
2018-07-20T13:39:31.048Z,26.60
2018-07-20T13:44:34.164Z,27.00
2018-07-20T13:49:37.253Z,27.10
2018-07-20T13:54:40.351Z,27.00
2018-07-20T13:59:43.608Z,28.90
2018-07-20T14:04:46.728Z,26.60
2018-07-20T14:09:49.909Z,27.00
2018-07-20T14:14:52.996Z,27.30
2018-07-20T14:19:56.120Z,26.80
2018-07-20T14:24:59.251Z,27.80
2018-07-20T14:30:02.356Z,27.60
2018-07-20T14:35:05.980Z,26.90
2018-07-20T14:40:09.477Z,26.50
2018-07-20T14:45:12.648Z,26.40
2018-07-20T14:50:15.770Z,26.50
2018-07-20T14:55:18.889Z,26.70
2018-07-20T15:00:22.016Z,26.80
2018-07-20T15:05:25.108Z,27.50
2018-07-20T15:10:28.238Z,27.30
2018-07-20T15:15:31.314Z,27.10
2018-07-20T15:20:34.423Z,27.20
2018-07-20T15:25:37.663Z,27.50
2018-07-20T15:30:40.767Z,27.20
2018-07-20T15:35:43.863Z,27.20
2018-07-20T15:40:47.060Z,27.60
2018-07-20T15:46:05.768Z,27.70
2018-07-20T15:50:53.376Z,27.50
2018-07-20T15:55:56.577Z,27.80
2018-07-20T16:00:59.678Z,28.00
2018-07-20T16:06:02.796Z,28.10
2018-07-20T16:11:05.960Z,28.20
2018-07-20T16:16:09.068Z,28.30
2018-07-20T16:21:12.140Z,28.40
2018-07-20T16:26:15.245Z,28.50
2018-07-20T16:31:18.415Z,28.30
2018-07-20T16:36:21.514Z,28.80
2018-07-20T16:41:24.629Z,28.80
2018-07-20T16:46:27.740Z,28.90
2018-07-20T16:51:30.879Z,29.10
2018-07-20T16:56:34.051Z,29.00
2018-07-20T17:01:37.140Z,29.30
2018-07-20T17:06:40.420Z,29.50
2018-07-20T17:11:43.532Z,29.40
2018-07-20T17:16:46.767Z,29.60
2018-07-20T17:21:49.898Z,29.70
2018-07-20T17:26:53.080Z,30.00
2018-07-20T17:31:56.760Z,30.00
2018-07-20T17:37:00.512Z,30.10
2018-07-20T17:42:04.344Z,30.20
2018-07-20T17:47:07.792Z,30.40
2018-07-20T17:52:11.640Z,30.90
2018-07-20T17:57:15.535Z,30.80
2018-07-20T18:02:19.187Z,31.20
2018-07-20T18:07:22.291Z,31.30
2018-07-20T18:12:25.371Z,31.80
2018-07-20T18:17:28.476Z,31.80
2018-07-20T18:22:31.552Z,31.60
2018-07-20T18:27:34.648Z,31.80
2018-07-20T18:32:37.836Z,31.80
2018-07-20T18:37:41.127Z,31.60
2018-07-20T18:42:44.306Z,32.00
2018-07-20T18:47:47.438Z,32.60
2018-07-20T18:52:50.551Z,32.90
2018-07-20T18:57:53.764Z,32.40
2018-07-20T19:02:56.951Z,33.30
2018-07-20T19:08:00.164Z,32.90
2018-07-20T19:13:03.370Z,32.90
2018-07-20T19:18:06.576Z,33.20
2018-07-20T19:23:09.783Z,33.20
2018-07-20T19:28:12.985Z,33.40
2018-07-20T19:33:16.181Z,33.20
2018-07-20T19:38:19.308Z,33.80
2018-07-20T19:43:22.531Z,34.30
2018-07-20T19:48:25.736Z,34.10
2018-07-20T19:53:29.008Z,33.80
2018-07-20T19:58:32.103Z,34.30
2018-07-20T20:03:35.408Z,34.50
2018-07-20T20:08:38.498Z,34.80
2018-07-20T20:13:41.634Z,34.20
2018-07-20T20:23:47.656Z,34.80
2018-07-20T20:28:50.767Z,35.10
2018-07-20T20:33:55.010Z,35.00
2018-07-20T20:38:58.930Z,35.30
2018-07-20T20:44:02.926Z,35.30
2018-07-20T20:49:06.070Z,35.40
2018-07-20T20:54:09.165Z,35.70
2018-07-20T20:59:12.323Z,35.40
2018-07-20T21:04:15.547Z,36.40
2018-07-20T21:09:18.608Z,36.10
2018-07-20T21:14:21.720Z,36.20
2018-07-20T21:19:24.851Z,36.20
2018-07-20T21:24:27.971Z,36.80
2018-07-20T21:29:31.060Z,37.00
2018-07-20T21:34:34.239Z,37.00
2018-07-20T21:39:37.381Z,37.30
2018-07-20T21:44:40.456Z,37.20
2018-07-20T21:49:43.580Z,37.10
2018-07-20T21:54:46.687Z,37.30
2018-07-20T21:59:49.779Z,37.80
2018-07-20T22:04:52.892Z,37.80
2018-07-20T22:09:56.028Z,38.00
2018-07-20T22:14:59.948Z,38.30
2018-07-20T22:20:03.383Z,38.20
2018-07-20T22:25:07.232Z,38.40
2018-07-20T22:30:10.824Z,38.20
2018-07-20T22:35:13.981Z,38.40
2018-07-20T22:40:17.068Z,38.60
2018-07-20T22:45:20.165Z,39.00
2018-07-20T22:50:23.291Z,39.10
2018-07-20T22:55:26.434Z,39.30
2018-07-20T23:00:29.555Z,39.30
2018-07-20T23:05:32.659Z,39.50
2018-07-20T23:10:35.803Z,39.20
2018-07-20T23:20:41.941Z,39.70
2018-07-20T23:25:44.995Z,39.60
2018-07-20T23:30:48.122Z,39.70
2018-07-20T23:35:51.217Z,39.80
2018-07-20T23:40:54.339Z,39.60
2018-07-20T23:45:57.460Z,40.00
2018-07-20T23:51:00.719Z,40.20
2018-07-20T23:56:03.853Z,40.30
